createdAt,value
2022-12-23T00:01:22.839Z,92.93
2022-12-23T00:03:49.457Z,93.27
2022-12-23T00:06:17.226Z,92.83
2022-12-23T00:08:44.044Z,93.41
2022-12-23T00:11:13.708Z,93.25
2022-12-23T00:13:58.681Z,92.79
2022-12-23T00:16:25.104Z,93.05
2022-12-23T00:18:52.803Z,93.06
2022-12-23T00:21:19.199Z,92.78
2022-12-23T00:23:47.410Z,93.58
2022-12-23T00:26:17.815Z,93.41
2022-12-23T00:28:45.361Z,93.09
2022-12-23T00:31:12.233Z,93.84
2022-12-23T00:33:44.761Z,93.10
2022-12-23T00:36:14.954Z,93.44
2022-12-23T00:38:59.837Z,93.73
2022-12-23T00:41:45.110Z,93.41
2022-12-23T00:44:11.531Z,93.71
2022-12-23T00:46:38.310Z,93.27
2022-12-23T00:49:23.526Z,93.61
2022-12-23T00:51:50.059Z,93.88
2022-12-23T00:54:17.730Z,92.96
2022-12-23T00:56:44.160Z,93.04
2022-12-23T00:59:10.538Z,93.25
2022-12-23T01:01:55.613Z,93.23
2022-12-23T01:04:40.732Z,93.20
2022-12-23T01:07:07.184Z,93.29
2022-12-23T01:09:33.906Z,93.02
2022-12-23T01:12:00.375Z,92.88
2022-12-23T01:14:26.913Z,92.77
2022-12-23T01:16:53.342Z,93.09
2022-12-23T01:19:19.777Z,93.43
2022-12-23T01:21:46.159Z,93.39
2022-12-23T01:24:12.508Z,92.76
2022-12-23T01:26:38.913Z,93.53
2022-12-23T01:29:05.433Z,93.16
2022-12-23T01:31:31.809Z,93.40
2022-12-23T01:33:58.301Z,93.45
2022-12-23T01:36:24.735Z,93.12
2022-12-23T01:38:51.605Z,92.89
2022-12-23T01:41:45.325Z,93.19
2022-12-23T01:44:47.195Z,93.12
2022-12-23T01:47:19.249Z,93.65
2022-12-23T01:49:46.184Z,93.35
2022-12-23T01:52:13.304Z,93.23
2022-12-23T01:54:39.954Z,93.05
2022-12-23T01:57:06.616Z,93.84
2022-12-23T01:59:51.818Z,93.31
2022-12-23T02:02:36.693Z,93.73
2022-12-23T02:05:03.221Z,92.80
2022-12-23T02:07:48.591Z,92.70
2022-12-23T02:10:14.942Z,92.78
2022-12-23T02:12:53.809Z,93.47
2022-12-23T02:15:59.045Z,93.55
2022-12-23T02:18:38.221Z,94.09
2022-12-23T02:21:04.504Z,93.77
2022-12-23T02:23:58.348Z,93.19
2022-12-23T02:26:43.361Z,93.36
2022-12-23T02:29:34.973Z,93.16
2022-12-23T02:32:01.253Z,93.05
2022-12-23T02:34:48.806Z,93.75
2022-12-23T02:37:21.181Z,93.13
2022-12-23T02:39:53.880Z,93.80
2022-12-23T02:42:33.356Z,93.80
2022-12-23T02:45:23.410Z,92.92
2022-12-23T02:47:54.212Z,93.31
2022-12-23T02:50:28.569Z,93.78
2022-12-23T02:52:57.877Z,93.14
2022-12-23T02:55:31.120Z,93.43
2022-12-23T02:58:00.777Z,93.27
2022-12-23T03:00:27.502Z,93.53
2022-12-23T03:02:54.017Z,93.70
2022-12-23T03:05:29.229Z,93.35
2022-12-23T03:07:59.590Z,93.61
2022-12-23T03:10:47.275Z,94.09
2022-12-23T03:13:18.826Z,93.23
2022-12-23T03:16:12.984Z,94.02
2022-12-23T03:19:07.048Z,93.58
2022-12-23T03:21:46.861Z,93.82
2022-12-23T03:24:22.865Z,92.77
2022-12-23T03:26:54.809Z,93.55
2022-12-23T03:29:29.612Z,93.87
2022-12-23T03:31:58.336Z,93.15
2022-12-23T03:34:29.899Z,93.83
2022-12-23T03:36:59.069Z,93.58
2022-12-23T03:39:33.024Z,93.87
2022-12-23T03:42:17.297Z,93.70
2022-12-23T03:45:10.696Z,93.34
2022-12-23T03:47:38.251Z,93.33
2022-12-23T03:50:17.480Z,94.19
2022-12-23T03:52:49.380Z,94.09
2022-12-23T03:55:23.284Z,94.59
2022-12-23T03:57:55.410Z,93.62
2022-12-23T04:00:21.947Z,94.74
2022-12-23T04:02:58.307Z,94.41
2022-12-23T04:05:36.631Z,94.67
2022-12-23T04:08:13.695Z,95.06
2022-12-23T04:10:40.070Z,94.72
2022-12-23T04:13:06.492Z,94.87
2022-12-23T04:15:33.287Z,94.62
2022-12-23T04:17:59.672Z,94.65
2022-12-23T04:20:26.034Z,94.29
2022-12-23T04:22:52.411Z,94.27
2022-12-23T04:25:19.180Z,94.84
2022-12-23T04:27:45.543Z,93.84
2022-12-23T04:30:13.760Z,94.53
2022-12-23T04:32:41.071Z,93.82
2022-12-23T04:35:07.838Z,94.73
2022-12-23T04:37:34.262Z,94.53
2022-12-23T04:40:00.702Z,94.44
2022-12-23T04:42:27.096Z,94.97
2022-12-23T04:44:53.472Z,94.58
2022-12-23T04:47:19.802Z,95.29
2022-12-23T04:49:46.242Z,95.31
2022-12-23T04:52:12.842Z,95.28
2022-12-23T04:54:45.460Z,95.00
2022-12-23T04:57:12.734Z,93.98
2022-12-23T04:59:39.308Z,94.05
2022-12-23T05:02:05.813Z,94.55
2022-12-23T05:04:32.811Z,94.54
2022-12-23T05:06:59.275Z,95.39
2022-12-23T05:09:25.602Z,95.04
2022-12-23T05:11:52.011Z,94.78
2022-12-23T05:14:18.446Z,94.69
2022-12-23T05:16:44.889Z,94.40
2022-12-23T05:19:11.334Z,94.49
2022-12-23T05:21:37.715Z,94.73
2022-12-23T05:24:04.271Z,94.58
2022-12-23T05:26:30.848Z,94.63
2022-12-23T05:28:57.291Z,95.46
2022-12-23T05:31:23.709Z,95.12
2022-12-23T05:33:50.372Z,94.97
2022-12-23T05:36:16.801Z,95.25
2022-12-23T05:38:43.185Z,94.56
2022-12-23T05:41:09.608Z,94.64
2022-12-23T05:43:35.949Z,94.96
2022-12-23T05:46:02.343Z,94.90
2022-12-23T05:48:28.718Z,94.70
2022-12-23T05:50:55.143Z,95.12
2022-12-23T05:53:21.709Z,94.67
2022-12-23T05:55:48.320Z,94.47
2022-12-23T05:58:14.786Z,94.42
2022-12-23T06:00:41.146Z,93.96
2022-12-23T06:03:07.661Z,94.17
2022-12-23T06:05:36.459Z,93.87
2022-12-23T06:08:02.974Z,93.89
2022-12-23T06:10:29.365Z,93.44
2022-12-23T06:12:55.752Z,92.78
2022-12-23T06:15:22.103Z,93.41
2022-12-23T06:17:49.365Z,93.14
2022-12-23T06:20:20.481Z,93.62
2022-12-23T06:22:47.555Z,93.04
2022-12-23T06:25:14.034Z,92.76
2022-12-23T06:27:40.735Z,93.19
2022-12-23T06:30:07.808Z,92.90
2022-12-23T06:32:38.089Z,92.77
2022-12-23T06:35:06.641Z,92.83
2022-12-23T06:37:33.048Z,93.03
2022-12-23T06:39:59.567Z,92.77
2022-12-23T06:42:25.923Z,92.29
2022-12-23T06:44:52.253Z,92.59
2022-12-23T06:47:18.644Z,92.67
2022-12-23T06:49:45.038Z,92.44
2022-12-23T06:52:11.418Z,92.05
2022-12-23T06:54:38.044Z,92.14
2022-12-23T06:57:04.749Z,92.49
2022-12-23T06:59:31.551Z,92.84
2022-12-23T07:01:58.067Z,92.23
2022-12-23T07:04:24.623Z,92.43
2022-12-23T07:06:50.987Z,93.00
2022-12-23T07:09:17.429Z,92.16
2022-12-23T07:11:43.820Z,92.62
2022-12-23T07:14:10.262Z,92.63
2022-12-23T07:16:36.678Z,93.38
2022-12-23T07:19:03.056Z,92.73
2022-12-23T07:21:30.249Z,92.95
2022-12-23T07:23:56.913Z,93.07
2022-12-23T07:26:23.300Z,93.35
2022-12-23T07:28:49.682Z,92.95
2022-12-23T07:31:16.416Z,93.24
2022-12-23T07:33:42.913Z,92.58
2022-12-23T07:36:09.666Z,93.63
2022-12-23T07:38:36.005Z,93.15
2022-12-23T07:41:02.383Z,93.18
2022-12-23T07:43:28.751Z,92.75
2022-12-23T07:45:59.907Z,92.70
2022-12-23T07:48:26.874Z,92.31
2022-12-23T07:50:53.214Z,92.73
2022-12-23T07:53:19.539Z,92.80
2022-12-23T07:55:46.708Z,92.67
2022-12-23T07:58:15.423Z,92.56
2022-12-23T08:00:41.768Z,92.85
2022-12-23T08:03:10.453Z,93.05
2022-12-23T08:05:36.945Z,92.20
2022-12-23T08:08:03.455Z,92.68
2022-12-23T08:10:29.861Z,93.18
2022-12-23T08:12:56.330Z,92.59
2022-12-23T08:15:22.749Z,92.63
2022-12-23T08:17:49.111Z,92.92
2022-12-23T08:20:15.532Z,93.06
2022-12-23T08:22:42.090Z,92.20
2022-12-23T08:25:08.988Z,92.95
2022-12-23T08:27:35.694Z,93.26
2022-12-23T08:30:02.139Z,92.46
2022-12-23T08:32:28.808Z,92.78
2022-12-23T08:34:57.323Z,91.93
2022-12-23T08:37:23.739Z,92.99
2022-12-23T08:39:50.086Z,92.63
2022-12-23T08:42:16.538Z,93.35
2022-12-23T08:44:43.283Z,92.96
2022-12-23T08:47:09.662Z,92.80
2022-12-23T08:49:36.360Z,92.46
2022-12-23T08:52:03.532Z,92.67
2022-12-23T08:54:29.933Z,93.24
2022-12-23T08:56:56.312Z,93.06
2022-12-23T08:59:22.707Z,92.77
2022-12-23T09:01:49.318Z,93.30
2022-12-23T09:04:15.768Z,92.83
2022-12-23T09:06:43.041Z,93.13
2022-12-23T09:09:12.376Z,92.69
2022-12-23T09:11:39.138Z,92.81
2022-12-23T09:14:06.537Z,93.02
2022-12-23T09:16:33.050Z,92.80
2022-12-23T09:18:59.718Z,92.52
2022-12-23T09:21:26.254Z,93.04
2022-12-23T09:23:52.735Z,92.75
2022-12-23T09:26:27.467Z,91.92
2022-12-23T09:28:55.235Z,92.37
2022-12-23T09:31:22.250Z,92.83
2022-12-23T09:33:50.490Z,92.73
2022-12-23T09:36:16.975Z,92.67
2022-12-23T09:38:43.472Z,92.49
2022-12-23T09:41:34.572Z,92.59
2022-12-23T09:44:37.074Z,93.21
2022-12-23T09:47:06.222Z,92.55
2022-12-23T09:49:33.408Z,92.57
2022-12-23T09:52:02.171Z,92.77
2022-12-23T09:54:42.399Z,92.04
2022-12-23T09:57:21.889Z,91.67
2022-12-23T10:00:06.255Z,92.63
2022-12-23T10:03:03.907Z,92.77
2022-12-23T10:05:47.718Z,92.03
2022-12-23T10:08:32.170Z,91.94
2022-12-23T10:11:02.427Z,92.05
2022-12-23T10:13:35.725Z,92.59
2022-12-23T10:16:13.082Z,92.93
2022-12-23T10:18:50.118Z,92.18
2022-12-23T10:21:47.140Z,92.65
2022-12-23T10:24:26.638Z,92.33
2022-12-23T10:26:57.875Z,92.59
2022-12-23T10:29:26.432Z,91.71
2022-12-23T10:32:23.444Z,92.36
2022-12-23T10:34:59.160Z,92.38
2022-12-23T10:37:52.011Z,92.05
2022-12-23T10:40:47.081Z,92.17
2022-12-23T10:43:21.111Z,91.56
2022-12-23T10:46:06.177Z,92.65
2022-12-23T10:48:41.649Z,91.80
2022-12-23T10:51:20.130Z,92.08
2022-12-23T10:53:50.833Z,92.24
2022-12-23T10:56:18.359Z,92.57
2022-12-23T10:58:47.126Z,92.42
2022-12-23T11:01:18.973Z,92.89
2022-12-23T11:04:03.624Z,92.34
2022-12-23T11:06:36.829Z,92.75
2022-12-23T11:09:07.239Z,92.36
2022-12-23T11:11:55.911Z,92.70
2022-12-23T11:14:42.677Z,93.37
2022-12-23T11:17:27.512Z,92.66
2022-12-23T11:20:10.747Z,93.23
2022-12-23T11:22:48.176Z,93.03
2022-12-23T11:25:34.784Z,92.66
2022-12-23T11:28:22.135Z,93.72
2022-12-23T11:30:56.753Z,93.56
2022-12-23T11:33:30.049Z,93.71
2022-12-23T11:36:07.798Z,93.00
2022-12-23T11:38:36.072Z,93.45
2022-12-23T11:41:04.276Z,93.19
2022-12-23T11:43:32.547Z,93.22
2022-12-23T11:46:25.662Z,93.11
2022-12-23T11:49:31.385Z,93.73
2022-12-23T11:52:09.501Z,93.60
2022-12-23T11:54:36.699Z,93.89
2022-12-23T11:57:09.788Z,93.02
2022-12-23T11:59:42.315Z,93.13
2022-12-23T12:02:21.793Z,93.56
2022-12-23T12:04:56.208Z,93.18
2022-12-23T12:07:22.606Z,93.92
2022-12-23T12:09:48.966Z,93.86
2022-12-23T12:12:19.133Z,93.96
2022-12-23T12:14:48.704Z,94.11
2022-12-23T12:17:32.867Z,93.39
2022-12-23T12:20:21.897Z,93.52
2022-12-23T12:22:52.875Z,93.70
2022-12-23T12:25:39.853Z,93.53
2022-12-23T12:28:18.244Z,94.28
2022-12-23T12:30:52.976Z,94.34
2022-12-23T12:33:23.816Z,94.44
2022-12-23T12:36:09.187Z,93.99
2022-12-23T12:38:38.077Z,94.47
2022-12-23T12:41:28.138Z,94.08
2022-12-23T12:44:16.446Z,93.80
2022-12-23T12:47:15.971Z,94.47
2022-12-23T12:49:57.227Z,93.69
2022-12-23T12:52:27.727Z,94.28
2022-12-23T12:54:59.914Z,94.31
2022-12-23T12:57:26.365Z,94.00
2022-12-23T13:00:03.580Z,94.46
2022-12-23T13:03:07.862Z,93.98
2022-12-23T13:05:57.954Z,93.78
2022-12-23T13:08:50.208Z,93.72
2022-12-23T13:11:45.140Z,94.48
2022-12-23T13:14:50.846Z,93.68
2022-12-23T13:17:33.803Z,93.76
2022-12-23T13:20:29.402Z,94.28
2022-12-23T13:23:20.874Z,94.17
2022-12-23T13:25:55.067Z,94.46
2022-12-23T13:28:43.693Z,94.23
2022-12-23T13:31:19.385Z,94.14
2022-12-23T13:34:10.537Z,94.34
2022-12-23T13:36:54.110Z,94.74
2022-12-23T13:39:33.524Z,94.54
2022-12-23T13:42:05.152Z,94.73
2022-12-23T13:44:34.316Z,94.48
2022-12-23T13:47:12.722Z,94.62
2022-12-23T13:50:04.467Z,94.68
2022-12-23T13:52:55.693Z,94.12
2022-12-23T13:55:43.719Z,93.96
2022-12-23T13:58:18.371Z,94.79
2022-12-23T14:00:44.938Z,94.59
2022-12-23T14:03:14.288Z,94.50
2022-12-23T14:05:44.808Z,94.88
2022-12-23T14:08:20.357Z,94.90
2022-12-23T14:10:58.883Z,94.21
2022-12-23T14:13:31.736Z,94.70
2022-12-23T14:15:58.091Z,94.92
2022-12-23T14:18:30.295Z,94.06
2022-12-23T14:21:18.442Z,94.61
2022-12-23T14:23:51.977Z,94.53
2022-12-23T14:26:22.062Z,94.60
2022-12-23T14:28:54.169Z,94.28
2022-12-23T14:31:31.038Z,94.59
2022-12-23T14:34:05.888Z,94.83
2022-12-23T14:36:33.066Z,94.80
2022-12-23T14:39:32.638Z,94.96
2022-12-23T14:42:05.761Z,94.44
2022-12-23T14:44:35.946Z,94.49
2022-12-23T14:47:30.369Z,94.47
2022-12-23T14:49:56.760Z,95.05
2022-12-23T14:52:40.800Z,94.57
2022-12-23T14:55:31.303Z,94.35
2022-12-23T14:58:43.344Z,93.96
2022-12-23T15:01:13.015Z,94.26
2022-12-23T15:03:46.298Z,94.11
2022-12-23T15:06:17.252Z,94.02
2022-12-23T15:08:44.202Z,94.13
2022-12-23T15:11:18.706Z,93.58
2022-12-23T15:13:45.183Z,93.79
2022-12-23T15:16:17.540Z,94.38
2022-12-23T15:18:57.185Z,94.04
2022-12-23T15:21:33.289Z,94.10
2022-12-23T15:24:00.400Z,93.86
2022-12-23T15:26:29.725Z,94.10
2022-12-23T15:28:57.756Z,93.72
2022-12-23T15:31:32.577Z,93.76
2022-12-23T15:34:02.748Z,93.84
2022-12-23T15:36:35.659Z,93.60
2022-12-23T15:39:06.878Z,93.06
2022-12-23T15:41:41.699Z,92.93
2022-12-23T15:44:11.499Z,93.00
2022-12-23T15:46:39.387Z,93.76
2022-12-23T15:49:06.649Z,93.46
2022-12-23T15:52:05.964Z,93.74
2022-12-23T15:54:24.649Z,93.92
2022-12-23T15:56:53.070Z,93.61
2022-12-23T15:59:32.673Z,93.54
2022-12-23T16:01:59.170Z,93.42
2022-12-23T16:04:27.993Z,93.46
2022-12-23T16:06:55.008Z,94.27
2022-12-23T16:09:21.269Z,93.95
2022-12-23T16:12:01.249Z,93.69
2022-12-23T16:14:30.736Z,94.11
2022-12-23T16:17:09.151Z,93.78
2022-12-23T16:19:48.639Z,93.75
2022-12-23T16:22:22.716Z,93.70
2022-12-23T16:25:08.025Z,93.71
2022-12-23T16:27:58.242Z,94.14
2022-12-23T16:30:33.819Z,93.77
2022-12-23T16:33:02.523Z,93.85
2022-12-23T16:35:30.717Z,93.92
2022-12-23T16:37:59.753Z,94.14
2022-12-23T16:40:26.333Z,94.14
2022-12-23T16:42:52.700Z,93.59
2022-12-23T16:45:19.629Z,93.70
2022-12-23T16:47:45.968Z,94.19
2022-12-23T16:50:14.640Z,93.67
2022-12-23T16:52:41.012Z,93.73
2022-12-23T16:55:15.948Z,93.90
2022-12-23T16:57:42.743Z,93.58
2022-12-23T17:00:13.780Z,93.70
2022-12-23T17:02:40.196Z,94.03
2022-12-23T17:05:07.765Z,93.67
2022-12-23T17:07:34.102Z,93.43
2022-12-23T17:10:00.492Z,93.79
2022-12-23T17:12:27.103Z,93.72
2022-12-23T17:14:53.474Z,93.88
2022-12-23T17:17:21.422Z,93.41
2022-12-23T17:19:47.779Z,93.24
2022-12-23T17:22:15.031Z,93.19
2022-12-23T17:24:41.360Z,92.88
2022-12-23T17:27:16.560Z,92.93
2022-12-23T17:29:43.108Z,92.54
2022-12-23T17:32:13.967Z,92.83
2022-12-23T17:34:40.420Z,92.39
2022-12-23T17:37:13.936Z,92.68
2022-12-23T17:39:41.356Z,93.34
2022-12-23T17:42:21.618Z,92.85
2022-12-23T17:44:51.501Z,93.10
2022-12-23T17:47:20.152Z,92.42
2022-12-23T17:49:46.515Z,92.66
2022-12-23T17:52:14.729Z,92.51
2022-12-23T17:54:41.304Z,92.83
2022-12-23T17:57:22.708Z,92.86
2022-12-23T17:59:50.608Z,92.97
2022-12-23T18:02:32.711Z,92.09
2022-12-23T18:04:59.588Z,92.16
2022-12-23T18:07:26.141Z,92.14
2022-12-23T18:09:53.375Z,92.18
2022-12-23T18:12:39.432Z,92.11
2022-12-23T18:15:07.157Z,91.87
2022-12-23T18:17:33.621Z,92.15
2022-12-23T18:19:59.939Z,92.38
2022-12-23T18:22:27.408Z,91.89
2022-12-23T18:24:58.920Z,91.62
2022-12-23T18:27:25.964Z,91.56
2022-12-23T18:29:52.372Z,91.61
2022-12-23T18:32:27.034Z,91.51
2022-12-23T18:34:55.053Z,91.63
2022-12-23T18:37:22.313Z,91.35
2022-12-23T18:39:48.720Z,91.62
2022-12-23T18:42:17.510Z,91.24
2022-12-23T18:44:45.639Z,90.97
2022-12-23T18:47:12.337Z,90.32
2022-12-23T18:49:38.756Z,89.98
2022-12-23T18:52:07.336Z,90.08
2022-12-23T18:54:34.469Z,90.05
2022-12-23T18:57:01.562Z,89.92
2022-12-23T18:59:30.207Z,89.74
2022-12-23T19:01:57.342Z,90.00
2022-12-23T19:04:23.915Z,88.62
2022-12-23T19:06:50.271Z,89.30
2022-12-23T19:09:20.081Z,88.29
2022-12-23T19:11:47.569Z,88.05
2022-12-23T19:14:14.156Z,86.63
2022-12-23T19:16:44.667Z,85.25
2022-12-23T19:19:14.185Z,85.74
2022-12-23T19:21:40.499Z,83.94
2022-12-23T19:24:06.955Z,83.32
2022-12-23T19:26:33.299Z,83.91
2022-12-23T19:29:00.114Z,82.99
2022-12-23T19:31:27.684Z,84.19
2022-12-23T19:33:54.063Z,83.95
2022-12-23T19:36:24.924Z,82.55
2022-12-23T19:38:51.610Z,83.17
2022-12-23T19:41:18.318Z,84.38
2022-12-23T19:43:46.169Z,83.19
2022-12-23T19:46:12.969Z,83.37
2022-12-23T19:48:39.572Z,83.12
2022-12-23T19:51:08.734Z,83.76
2022-12-23T19:53:35.909Z,82.46
2022-12-23T19:56:07.809Z,82.25
2022-12-23T19:58:35.938Z,82.89
2022-12-23T20:01:09.603Z,82.63
2022-12-23T20:03:36.858Z,82.27
2022-12-23T20:06:05.232Z,82.59
2022-12-23T20:08:32.422Z,82.35
2022-12-23T20:11:06.013Z,82.32
2022-12-23T20:13:32.714Z,82.28
2022-12-23T20:15:59.208Z,82.71
2022-12-23T20:18:25.677Z,81.62
2022-12-23T20:20:52.119Z,82.50
2022-12-23T20:23:18.750Z,81.20
2022-12-23T20:25:45.217Z,82.21
2022-12-23T20:28:11.722Z,81.60
2022-12-23T20:30:38.166Z,81.12
2022-12-23T20:33:04.520Z,80.27
2022-12-23T20:35:31.246Z,80.89
2022-12-23T20:37:58.389Z,80.80
2022-12-23T20:40:24.839Z,80.73
2022-12-23T20:42:51.194Z,80.62
2022-12-23T20:45:17.565Z,80.02
2022-12-23T20:47:43.943Z,80.24
2022-12-23T20:50:10.431Z,79.00
2022-12-23T20:52:36.788Z,79.13
2022-12-23T20:55:03.181Z,78.62
2022-12-23T20:57:29.497Z,79.30
2022-12-23T20:59:55.844Z,78.91
2022-12-23T21:02:22.243Z,77.57
2022-12-23T21:04:48.657Z,78.52
2022-12-23T21:07:15.257Z,78.94
2022-12-23T21:09:41.676Z,76.87
2022-12-23T21:12:08.137Z,77.72
2022-12-23T21:14:35.187Z,73.65
2022-12-23T21:17:01.511Z,72.01
2022-12-23T21:19:27.921Z,71.76
2022-12-23T21:21:54.255Z,70.10
2022-12-23T21:24:20.940Z,72.02
2022-12-23T21:26:55.432Z,69.26
2022-12-23T21:29:22.649Z,72.19
2022-12-23T21:31:49.096Z,71.81
2022-12-23T21:34:15.675Z,70.59
2022-12-23T21:36:42.512Z,71.20
2022-12-23T21:39:12.984Z,71.22
2022-12-23T21:41:41.105Z,71.10
2022-12-23T21:44:07.746Z,72.85
2022-12-23T21:46:34.572Z,71.82
2022-12-23T21:49:01.058Z,73.13
2022-12-23T21:51:39.708Z,72.59
2022-12-23T21:54:08.449Z,72.83
2022-12-23T21:56:35.253Z,73.98
2022-12-23T21:59:05.056Z,73.49
2022-12-23T22:01:32.180Z,74.43
2022-12-23T22:03:58.627Z,75.32
2022-12-23T22:06:27.437Z,75.50
2022-12-23T22:08:54.674Z,73.18
2022-12-23T22:11:26.983Z,74.25
2022-12-23T22:13:55.842Z,74.14
2022-12-23T22:16:24.363Z,74.75
2022-12-23T22:18:50.947Z,74.15
2022-12-23T22:21:19.626Z,73.69
2022-12-23T22:23:48.879Z,75.14
2022-12-23T22:26:24.161Z,75.80
2022-12-23T22:28:52.609Z,77.16
2022-12-23T22:31:32.264Z,77.46
2022-12-23T22:33:58.812Z,77.88
2022-12-23T22:36:25.281Z,77.98
2022-12-23T22:38:53.431Z,77.89
2022-12-23T22:41:20.131Z,75.90
2022-12-23T22:43:46.559Z,74.86
2022-12-23T22:46:13.181Z,73.60
2022-12-23T22:48:39.582Z,73.43
2022-12-23T22:51:09.420Z,72.21
2022-12-23T22:53:36.196Z,72.62
2022-12-23T22:56:03.503Z,71.69
2022-12-23T22:58:31.728Z,71.68
2022-12-23T23:00:58.968Z,71.30
2022-12-23T23:03:26.265Z,71.47
2022-12-23T23:06:04.304Z,71.23
2022-12-23T23:08:31.049Z,70.54
2022-12-23T23:10:58.326Z,71.48
2022-12-23T23:13:25.695Z,71.69
2022-12-23T23:15:52.032Z,70.50
2022-12-23T23:18:18.851Z,71.79
2022-12-23T23:20:45.173Z,70.86
2022-12-23T23:23:11.509Z,71.00
2022-12-23T23:25:38.214Z,71.07
2022-12-23T23:28:04.750Z,70.83
2022-12-23T23:30:31.245Z,71.61
2022-12-23T23:32:57.637Z,70.91
2022-12-23T23:35:24.109Z,70.92
2022-12-23T23:37:50.458Z,70.18
2022-12-23T23:40:16.902Z,69.62
2022-12-23T23:42:43.270Z,70.34
2022-12-23T23:45:10.310Z,69.87
2022-12-23T23:47:36.775Z,68.65
2022-12-23T23:50:05.083Z,69.98
2022-12-23T23:52:31.565Z,68.30
2022-12-23T23:54:57.948Z,67.50
2022-12-23T23:57:26.160Z,66.48
2022-12-23T23:59:52.940Z,65.03
